Time;durP1;ratioP1;P1;durP2;ratioP2;P2;SDS_P1;SDS_P2;PMS_P1;PMS_P2;Temp;Humidity;BMP_temperature;BMP_pressure;BME280_temperature;BME280_humidity;BME280_pressure;Samples;Min_cycle;Max_cycle;Signal;HPM_P1;HPM_P2
2020/10/16 00:00:38;;;;;;;0.6;0.5;;;;;;;;;;;;;
2020/10/16 00:03:03;;;;;;;0.9;0.7;;;;;;;;;;;;;
2020/10/16 00:05:28;;;;;;;1.1;0.8;;;;;;;;;;;;;
2020/10/16 00:07:53;;;;;;;0.9;0.7;;;;;;;;;;;;;
2020/10/16 00:10:18;;;;;;;1.2;0.9;;;;;;;;;;;;;
2020/10/16 00:12:44;;;;;;;1.2;0.6;;;;;;;;;;;;;
2020/10/16 00:15:08;;;;;;;0.9;0.8;;;;;;;;;;;;;
2020/10/16 00:17:34;;;;;;;3;0.7;;;;;;;;;;;;;
2020/10/16 00:19:59;;;;;;;0.5;0.4;;;;;;;;;;;;;
2020/10/16 00:22:24;;;;;;;0.7;0.6;;;;;;;;;;;;;
2020/10/16 00:24:49;;;;;;;0.4;0.4;;;;;;;;;;;;;
2020/10/16 00:27:14;;;;;;;0.8;0.6;;;;;;;;;;;;;
2020/10/16 00:29:39;;;;;;;1;0.7;;;;;;;;;;;;;
2020/10/16 00:32:04;;;;;;;0.5;0.5;;;;;;;;;;;;;
2020/10/16 00:34:29;;;;;;;0.5;0.5;;;;;;;;;;;;;
2020/10/16 00:36:55;;;;;;;0.6;0.5;;;;;;;;;;;;;
2020/10/16 00:39:20;;;;;;;0.5;0.4;;;;;;;;;;;;;
2020/10/16 00:41:45;;;;;;;0.5;0.4;;;;;;;;;;;;;
2020/10/16 00:44:11;;;;;;;0.5;0.5;;;;;;;;;;;;;
2020/10/16 00:46:36;;;;;;;1;0.5;;;;;;;;;;;;;
2020/10/16 00:49:07;;;;;;;1.5;0.7;;;;;;;;;;;;;
2020/10/16 00:51:27;;;;;;;0.7;0.5;;;;;;;;;;;;;
2020/10/16 00:53:52;;;;;;;0.5;0.5;;;;;;;;;;;;;
2020/10/16 00:56:17;;;;;;;0.3;0.3;;;;;;;;;;;;;
2020/10/16 00:58:42;;;;;;;0.7;0.5;;;;;;;;;;;;;
2020/10/16 01:01:07;;;;;;;0.5;0.5;;;;;;;;;;;;;
2020/10/16 01:03:32;;;;;;;0.6;0.5;;;;;;;;;;;;;
2020/10/16 01:05:57;;;;;;;0.5;0.4;;;;;;;;;;;;;
2020/10/16 01:08:22;;;;;;;0.4;0.4;;;;;;;;;;;;;
2020/10/16 01:10:48;;;;;;;1.2;0.8;;;;;;;;;;;;;
2020/10/16 01:13:14;;;;;;;0.8;0.7;;;;;;;;;;;;;
2020/10/16 01:15:39;;;;;;;0.5;0.5;;;;;;;;;;;;;
2020/10/16 01:18:05;;;;;;;0.7;0.6;;;;;;;;;;;;;
2020/10/16 01:20:30;;;;;;;1;0.7;;;;;;;;;;;;;
2020/10/16 01:22:56;;;;;;;0.8;0.6;;;;;;;;;;;;;
2020/10/16 01:25:22;;;;;;;1.2;0.9;;;;;;;;;;;;;
2020/10/16 01:27:48;;;;;;;1.2;0.7;;;;;;;;;;;;;
2020/10/16 01:30:13;;;;;;;1.6;0.9;;;;;;;;;;;;;
2020/10/16 01:32:40;;;;;;;0.9;0.8;;;;;;;;;;;;;
2020/10/16 01:35:05;;;;;;;0.9;0.7;;;;;;;;;;;;;
2020/10/16 01:37:30;;;;;;;1;0.7;;;;;;;;;;;;;
2020/10/16 01:39:55;;;;;;;1.8;0.8;;;;;;;;;;;;;
2020/10/16 01:42:20;;;;;;;1.1;0.6;;;;;;;;;;;;;
2020/10/16 01:44:46;;;;;;;0.5;0.5;;;;;;;;;;;;;
2020/10/16 01:47:10;;;;;;;0.8;0.6;;;;;;;;;;;;;
2020/10/16 01:49:37;;;;;;;0.5;0.5;;;;;;;;;;;;;
2020/10/16 01:52:01;;;;;;;0.4;0.4;;;;;;;;;;;;;
2020/10/16 01:54:26;;;;;;;0.7;0.6;;;;;;;;;;;;;
2020/10/16 01:56:51;;;;;;;0.6;0.6;;;;;;;;;;;;;
2020/10/16 01:59:16;;;;;;;0.4;0.4;;;;;;;;;;;;;
2020/10/16 02:01:41;;;;;;;1.2;0.5;;;;;;;;;;;;;
2020/10/16 02:04:09;;;;;;;0.6;0.5;;;;;;;;;;;;;
2020/10/16 02:06:32;;;;;;;0.4;0.4;;;;;;;;;;;;;
2020/10/16 02:08:58;;;;;;;0.5;0.5;;;;;;;;;;;;;
2020/10/16 02:11:24;;;;;;;0.7;0.4;;;;;;;;;;;;;
2020/10/16 02:13:50;;;;;;;0.5;0.5;;;;;;;;;;;;;
2020/10/16 02:16:15;;;;;;;0.6;0.5;;;;;;;;;;;;;
2020/10/16 02:18:40;;;;;;;0.7;0.5;;;;;;;;;;;;;
2020/10/16 02:21:06;;;;;;;0.5;0.5;;;;;;;;;;;;;
2020/10/16 02:23:31;;;;;;;0.4;0.4;;;;;;;;;;;;;
2020/10/16 02:25:57;;;;;;;1.1;0.4;;;;;;;;;;;;;
2020/10/16 02:28:22;;;;;;;0.7;0.4;;;;;;;;;;;;;
2020/10/16 02:30:50;;;;;;;0.4;0.4;;;;;;;;;;;;;
2020/10/16 02:33:15;;;;;;;0.6;0.4;;;;;;;;;;;;;
2020/10/16 02:35:40;;;;;;;0.6;0.5;;;;;;;;;;;;;
2020/10/16 02:38:06;;;;;;;0.5;0.4;;;;;;;;;;;;;
2020/10/16 02:40:31;;;;;;;0.5;0.3;;;;;;;;;;;;;
2020/10/16 02:42:56;;;;;;;0.5;0.5;;;;;;;;;;;;;
2020/10/16 02:45:21;;;;;;;0.4;0.4;;;;;;;;;;;;;
2020/10/16 02:47:47;;;;;;;0.4;0.3;;;;;;;;;;;;;
2020/10/16 02:50:12;;;;;;;0.4;0.4;;;;;;;;;;;;;
2020/10/16 02:52:39;;;;;;;0.3;0.2;;;;;;;;;;;;;
2020/10/16 02:55:04;;;;;;;0.5;0.3;;;;;;;;;;;;;
2020/10/16 02:57:30;;;;;;;0.3;0.2;;;;;;;;;;;;;
2020/10/16 02:59:55;;;;;;;0.4;0.3;;;;;;;;;;;;;
2020/10/16 03:02:20;;;;;;;1.1;0.6;;;;;;;;;;;;;
2020/10/16 03:04:46;;;;;;;0.5;0.2;;;;;;;;;;;;;
2020/10/16 03:07:12;;;;;;;0.3;0.3;;;;;;;;;;;;;
2020/10/16 03:10:02;;;;;;;0.4;0.3;;;;;;;;;;;;;
2020/10/16 03:12:02;;;;;;;0.3;0.3;;;;;;;;;;;;;
2020/10/16 03:14:27;;;;;;;1.1;0.4;;;;;;;;;;;;;
2020/10/16 03:16:53;;;;;;;0.2;0.2;;;;;;;;;;;;;
2020/10/16 03:19:17;;;;;;;0.5;0.3;;;;;;;;;;;;;
2020/10/16 03:21:43;;;;;;;0.3;0.3;;;;;;;;;;;;;
2020/10/16 03:24:08;;;;;;;0.8;0.4;;;;;;;;;;;;;
2020/10/16 03:26:33;;;;;;;0.2;0.2;;;;;;;;;;;;;
2020/10/16 03:28:58;;;;;;;0.5;0.3;;;;;;;;;;;;;
2020/10/16 03:31:23;;;;;;;0.3;0.2;;;;;;;;;;;;;
2020/10/16 03:33:49;;;;;;;0.1;0.1;;;;;;;;;;;;;
2020/10/16 03:36:14;;;;;;;0.7;0.4;;;;;;;;;;;;;
2020/10/16 03:38:41;;;;;;;0.3;0.3;;;;;;;;;;;;;
2020/10/16 03:41:06;;;;;;;0.2;0.2;;;;;;;;;;;;;
2020/10/16 03:43:31;;;;;;;0.4;0.3;;;;;;;;;;;;;
2020/10/16 03:45:57;;;;;;;1.2;0.7;;;;;;;;;;;;;
2020/10/16 03:48:23;;;;;;;0.2;0.2;;;;;;;;;;;;;
2020/10/16 03:50:48;;;;;;;0.3;0.2;;;;;;;;;;;;;
2020/10/16 03:53:14;;;;;;;0.6;0.4;;;;;;;;;;;;;
2020/10/16 03:55:39;;;;;;;0.4;0.4;;;;;;;;;;;;;
2020/10/16 03:58:04;;;;;;;1.5;0.7;;;;;;;;;;;;;
2020/10/16 04:02:31;;;;;;;0.6;0.6;;;;;;;5.53;86.11914;935.3109;;;;
2020/10/16 04:05:00;;;;;;;0.3;0.2;;;;;;;5.56;86.33984;935.2927;;;;
2020/10/16 04:07:25;;;;;;;0.6;0.5;;;;;;;5.76;86.15332;935.2991;;;;
2020/10/16 04:12:19;;;;;;;1.8;0.5;;;;;;;5.91;85.77832;935.3157;;;;
2020/10/16 04:14:44;;;;;;;0.4;0.3;;;;;;;5.93;85.79492;935.4253;;;;
2020/10/16 04:17:14;;;;;;;0.4;0.4;;;;;;;5.67;86.45117;935.403;;;;
2020/10/16 04:19:43;;;;;;;0.8;0.4;;;;;;;5.46;88.69043;935.4547;;;;
2020/10/16 04:22:08;;;;;;;0.4;0.3;;;;;;;5.62;88.59863;935.4255;;;;
2020/10/16 04:24:33;;;;;;;1.2;0.3;;;;;;;5.12;90.17383;935.4188;;;;
2020/10/16 04:26:58;;;;;;;1;0.6;;;;;;;5.24;90.03125;935.4672;;;;
2020/10/16 04:29:23;;;;;;;0.4;0.3;;;;;;;5.14;90.40332;935.473;;;;
2020/10/16 04:31:54;;;;;;;0.4;0.4;;;;;;;5.2;89.96484;935.4533;;;;
2020/10/16 04:34:24;;;;;;;0.4;0.4;;;;;;;5.22;89.6875;935.4445;;;;
2020/10/16 04:36:49;;;;;;;0.6;0.4;;;;;;;5.46;89.17383;935.4578;;;;
2020/10/16 04:39:14;;;;;;;0.4;0.4;;;;;;;5.56;88.60938;935.4278;;;;
2020/10/16 04:41:39;;;;;;;1.1;0.5;;;;;;;5.68;88.06738;935.415;;;;
2020/10/16 04:44:05;;;;;;;0.3;0.3;;;;;;;5.49;88.46875;935.4568;;;;
2020/10/16 04:46:30;;;;;;;2.3;0.5;;;;;;;5.42;89.00879;935.4269;;;;
2020/10/16 04:48:55;;;;;;;0.3;0.3;;;;;;;5.61;88.56055;935.4512;;;;
2020/10/16 04:51:21;;;;;;;0.6;0.4;;;;;;;5.79;87.75293;935.3899;;;;
2020/10/16 04:53:45;;;;;;;0.5;0.4;;;;;;;5.84;87.09766;935.3605;;;;
2020/10/16 04:56:13;;;;;;;0.4;0.4;;;;;;;5.96;87.16504;935.418;;;;
2020/10/16 04:58:39;;;;;;;0.4;0.4;;;;;;;6.05;86.47363;935.4321;;;;
2020/10/16 05:01:04;;;;;;;0.8;0.4;;;;;;;5.74;87.12305;935.4567;;;;
2020/10/16 05:03:30;;;;;;;0.2;0.2;;;;;;;5.65;87.45215;935.4553;;;;
2020/10/16 05:05:55;;;;;;;0.3;0.3;;;;;;;5.66;87.65918;935.4399;;;;
2020/10/16 05:08:21;;;;;;;0.4;0.4;;;;;;;5.5;88.45898;935.4595;;;;
2020/10/16 05:10:46;;;;;;;0.6;0.4;;;;;;;5.6;88.34668;935.4991;;;;
2020/10/16 05:13:13;;;;;;;1.6;0.9;;;;;;;5.23;89.71191;935.5158;;;;
2020/10/16 05:15:38;;;;;;;4.4;2.1;;;;;;;5.61;88.73438;935.4744;;;;
2020/10/16 05:18:05;;;;;;;8.9;2.8;;;;;;;5.84;87.96582;935.4387;;;;
2020/10/16 05:20:30;;;;;;;2.8;1.9;;;;;;;5.51;88.37305;935.5016;;;;
2020/10/16 05:22:55;;;;;;;3.6;2.5;;;;;;;5.44;89.08008;935.383;;;;
2020/10/16 05:25:20;;;;;;;4.1;2.6;;;;;;;5.39;89.06836;935.4716;;;;
2020/10/16 05:27:47;;;;;;;5.1;2;;;;;;;5.5;88.35742;935.3718;;;;
2020/10/16 05:30:15;;;;;;;1.8;1.2;;;;;;;5.61;87.83105;935.4285;;;;
2020/10/16 05:32:41;;;;;;;0.9;0.8;;;;;;;5.52;88.12598;935.4742;;;;
2020/10/16 05:35:10;;;;;;;1.7;0.9;;;;;;;5.79;87.85449;935.4239;;;;
2020/10/16 05:37:34;;;;;;;0.8;0.6;;;;;;;5.68;88.06934;935.4774;;;;
2020/10/16 05:39:59;;;;;;;1.2;0.6;;;;;;;5.52;88.80176;935.4567;;;;
2020/10/16 05:42:25;;;;;;;2.6;0.6;;;;;;;5.81;87.81348;935.4966;;;;
2020/10/16 05:44:50;;;;;;;0.7;0.6;;;;;;;5.75;88.12793;935.509;;;;
2020/10/16 05:47:18;;;;;;;3;0.6;;;;;;;5.96;87.30078;935.5404;;;;
2020/10/16 05:49:40;;;;;;;0.7;0.6;;;;;;;6.09;87.0459;935.5397;;;;
2020/10/16 05:52:05;;;;;;;1.3;1;;;;;;;6.17;86.99512;935.5911;;;;
2020/10/16 05:54:30;;;;;;;0.9;0.8;;;;;;;6.21;86.98145;935.5505;;;;
2020/10/16 05:56:56;;;;;;;0.4;0.4;;;;;;;6.35;86.56738;935.6245;;;;
2020/10/16 05:59:21;;;;;;;1.1;0.8;;;;;;;6.42;86.16406;935.6642;;;;
2020/10/16 06:01:46;;;;;;;1.1;0.7;;;;;;;6.51;85.70508;935.5923;;;;
2020/10/16 06:04:11;;;;;;;1.8;1;;;;;;;6.49;85.90332;935.6394;;;;
2020/10/16 06:06:36;;;;;;;1.2;0.9;;;;;;;6.55;85.50098;935.6622;;;;
2020/10/16 06:09:01;;;;;;;1.1;0.6;;;;;;;6.52;84.29492;935.7153;;;;
2020/10/16 06:11:28;;;;;;;0.9;0.7;;;;;;;6.56;84.44922;935.7461;;;;
2020/10/16 06:13:53;;;;;;;1;0.8;;;;;;;6.58;84.48828;935.7084;;;;
2020/10/16 06:16:18;;;;;;;1;0.6;;;;;;;;;;;;;
2020/10/16 06:18:43;;;;;;;0.5;0.5;;;;;;;;;;;;;
2020/10/16 06:21:08;;;;;;;1.2;0.5;;;;;;;;;;;;;
2020/10/16 06:23:33;;;;;;;0.8;0.5;;;;;;;;;;;;;
2020/10/16 06:25:59;;;;;;;0.7;0.5;;;;;;;;;;;;;
2020/10/16 06:28:24;;;;;;;1.7;0.8;;;;;;;;;;;;;
2020/10/16 06:30:50;;;;;;;0.6;0.5;;;;;;;;;;;;;
2020/10/16 06:33:15;;;;;;;0.7;0.6;;;;;;;;;;;;;
2020/10/16 06:35:40;;;;;;;2.1;1;;;;;;;;;;;;;
2020/10/16 06:38:05;;;;;;;6.8;1.3;;;;;;;;;;;;;
2020/10/16 06:40:30;;;;;;;1.9;1.2;;;;;;;;;;;;;
2020/10/16 06:42:57;;;;;;;2.5;1.3;;;;;;;;;;;;;
2020/10/16 06:45:24;;;;;;;1.1;1;;;;;;;;;;;;;
2020/10/16 06:47:47;;;;;;;2.4;1.3;;;;;;;;;;;;;
2020/10/16 06:50:12;;;;;;;2.9;1.3;;;;;;;;;;;;;
2020/10/16 06:52:39;;;;;;;1.7;1.1;;;;;;;;;;;;;
2020/10/16 06:55:05;;;;;;;2.9;1.6;;;;;;;;;;;;;
2020/10/16 06:57:32;;;;;;;1.5;1;;;;;;;;;;;;;
2020/10/16 06:59:54;;;;;;;4.8;2.2;;;;;;;;;;;;;
2020/10/16 07:02:20;;;;;;;2.6;1.8;;;;;;;;;;;;;
2020/10/16 07:04:46;;;;;;;3.4;1.3;;;;;;;;;;;;;
2020/10/16 07:07:11;;;;;;;3.7;2.2;;;;;;;;;;;;;
2020/10/16 07:09:36;;;;;;;8.2;4.1;;;;;;;;;;;;;
2020/10/16 07:12:06;;;;;;;0.7;0.6;;;;;;;;;;;;;
2020/10/16 07:14:27;;;;;;;1.3;0.9;;;;;;;;;;;;;
2020/10/16 07:16:53;;;;;;;2.1;0.7;;;;;;;;;;;;;
2020/10/16 07:19:18;;;;;;;0.7;0.6;;;;;;;;;;;;;
2020/10/16 07:21:44;;;;;;;1;0.9;;;;;;;;;;;;;
2020/10/16 07:24:09;;;;;;;1.2;0.8;;;;;;;;;;;;;
2020/10/16 07:26:35;;;;;;;0.5;0.5;;;;;;;;;;;;;
2020/10/16 07:29:00;;;;;;;0.8;0.8;;;;;;;;;;;;;
2020/10/16 07:31:25;;;;;;;0.9;0.6;;;;;;;;;;;;;
2020/10/16 07:33:50;;;;;;;0.8;0.4;;;;;;;;;;;;;
2020/10/16 07:36:20;;;;;;;0.4;0.4;;;;;;;;;;;;;
2020/10/16 07:38:46;;;;;;;0.7;0.6;;;;;;;;;;;;;
2020/10/16 07:41:12;;;;;;;1.5;0.6;;;;;;;;;;;;;
2020/10/16 07:43:37;;;;;;;0.6;0.4;;;;;;;;;;;;;
2020/10/16 07:46:02;;;;;;;0.8;0.4;;;;;;;;;;;;;
2020/10/16 07:48:28;;;;;;;0.5;0.3;;;;;;;;;;;;;
2020/10/16 07:50:54;;;;;;;0.7;0.6;;;;;;;;;;;;;
2020/10/16 07:53:19;;;;;;;0.5;0.5;;;;;;;;;;;;;
2020/10/16 07:55:44;;;;;;;0.4;0.4;;;;;;;;;;;;;
2020/10/16 07:58:13;;;;;;;0.3;0.3;;;;;;;;;;;;;
2020/10/16 08:00:36;;;;;;;0.2;0.2;;;;;;;;;;;;;
2020/10/16 08:03:01;;;;;;;0.2;0.2;;;;;;;;;;;;;
2020/10/16 08:05:26;;;;;;;2.5;1;;;;;;;;;;;;;
2020/10/16 08:07:52;;;;;;;0.5;0.5;;;;;;;;;;;;;
2020/10/16 08:10:18;;;;;;;1.9;0.9;;;;;;;;;;;;;
2020/10/16 08:12:44;;;;;;;1.3;0.9;;;;;;;;;;;;;
2020/10/16 08:15:10;;;;;;;1.2;0.9;;;;;;;;;;;;;
2020/10/16 08:17:35;;;;;;;1.2;0.8;;;;;;;;;;;;;
2020/10/16 08:20:00;;;;;;;3.5;0.7;;;;;;;;;;;;;
2020/10/16 08:22:25;;;;;;;1.8;1;;;;;;;;;;;;;
2020/10/16 08:24:52;;;;;;;4.7;1.9;;;;;;;;;;;;;
2020/10/16 08:27:17;;;;;;;1.8;0.9;;;;;;;;;;;;;
2020/10/16 08:29:43;;;;;;;1.5;1.1;;;;;;;;;;;;;
2020/10/16 08:32:08;;;;;;;2.1;1;;;;;;;;;;;;;
2020/10/16 08:34:33;;;;;;;4.3;2;;;;;;;;;;;;;
2020/10/16 08:36:59;;;;;;;2.3;1.3;;;;;;;;;;;;;
2020/10/16 08:39:25;;;;;;;2.2;1.2;;;;;;;;;;;;;
2020/10/16 08:41:51;;;;;;;6.5;3.3;;;;;;;;;;;;;
2020/10/16 08:44:16;;;;;;;19.1;9;;;;;;;;;;;;;
2020/10/16 08:46:41;;;;;;;16.6;7.1;;;;;;;;;;;;;
2020/10/16 08:49:08;;;;;;;7.6;3.5;;;;;;;;;;;;;
2020/10/16 08:51:34;;;;;;;1.9;0.7;;;;;;;;;;;;;
2020/10/16 08:53:59;;;;;;;0.6;0.5;;;;;;;;;;;;;
2020/10/16 08:56:24;;;;;;;1.6;0.9;;;;;;;;;;;;;
2020/10/16 08:58:51;;;;;;;0.9;0.8;;;;;;;;;;;;;
2020/10/16 09:01:17;;;;;;;3.8;0.8;;;;;;;;;;;;;
2020/10/16 09:03:44;;;;;;;3.4;0.7;;;;;;;;;;;;;
2020/10/16 09:06:10;;;;;;;1;0.7;;;;;;;;;;;;;
2020/10/16 09:08:35;;;;;;;5.2;2.8;;;;;;;;;;;;;
2020/10/16 09:11:02;;;;;;;4;0.8;;;;;;;;;;;;;
2020/10/16 09:13:27;;;;;;;1.1;0.8;;;;;;;;;;;;;
2020/10/16 09:15:53;;;;;;;0.9;0.7;;;;;;;;;;;;;
2020/10/16 09:18:21;;;;;;;2;1;;;;;;;;;;;;;
2020/10/16 09:20:46;;;;;;;2.7;1.9;;;;;;;;;;;;;
2020/10/16 09:23:12;;;;;;;2.6;1.5;;;;;;;;;;;;;
2020/10/16 09:25:36;;;;;;;1.7;1.2;;;;;;;;;;;;;
2020/10/16 09:28:01;;;;;;;0.6;0.6;;;;;;;;;;;;;
2020/10/16 09:30:28;;;;;;;1;0.6;;;;;;;;;;;;;
2020/10/16 09:32:53;;;;;;;0.8;0.6;;;;;;;;;;;;;
2020/10/16 09:35:18;;;;;;;0.6;0.6;;;;;;;;;;;;;
2020/10/16 09:37:44;;;;;;;1.6;1;;;;;;;;;;;;;
2020/10/16 09:40:09;;;;;;;0.8;0.7;;;;;;;;;;;;;
2020/10/16 09:42:36;;;;;;;0.7;0.6;;;;;;;;;;;;;
2020/10/16 09:45:01;;;;;;;1.9;1;;;;;;;;;;;;;
2020/10/16 09:47:27;;;;;;;1;0.5;;;;;;;;;;;;;
2020/10/16 09:49:51;;;;;;;1.3;0.8;;;;;;;;;;;;;
2020/10/16 09:52:17;;;;;;;1.1;0.6;;;;;;;;;;;;;
2020/10/16 09:54:42;;;;;;;0.5;0.5;;;;;;;;;;;;;
2020/10/16 09:57:09;;;;;;;3.1;0.6;;;;;;;;;;;;;
2020/10/16 09:59:35;;;;;;;1.3;0.5;;;;;;;;;;;;;
2020/10/16 10:02:01;;;;;;;0.9;0.6;;;;;;;;;;;;;
2020/10/16 10:04:26;;;;;;;0.9;0.6;;;;;;;;;;;;;
2020/10/16 10:06:51;;;;;;;1;0.7;;;;;;;;;;;;;
2020/10/16 10:09:16;;;;;;;0.4;0.4;;;;;;;;;;;;;
2020/10/16 10:11:43;;;;;;;0.6;0.6;;;;;;;;;;;;;
2020/10/16 10:14:08;;;;;;;0.7;0.4;;;;;;;;;;;;;
2020/10/16 10:16:34;;;;;;;0.3;0.3;;;;;;;;;;;;;
2020/10/16 10:18:59;;;;;;;0.3;0.3;;;;;;;;;;;;;
2020/10/16 10:21:24;;;;;;;0.4;0.3;;;;;;;;;;;;;
2020/10/16 10:23:50;;;;;;;1.9;0.2;;;;;;;;;;;;;
2020/10/16 10:26:16;;;;;;;0.8;0.5;;;;;;;;;;;;;
2020/10/16 10:28:43;;;;;;;0.2;0.2;;;;;;;;;;;;;
2020/10/16 10:31:08;;;;;;;0.3;0.3;;;;;;;;;;;;;
2020/10/16 10:33:33;;;;;;;0.5;0.3;;;;;;;;;;;;;
2020/10/16 10:35:58;;;;;;;1.2;0.6;;;;;;;;;;;;;
2020/10/16 10:38:23;;;;;;;0.1;0.1;;;;;;;;;;;;;
2020/10/16 10:40:48;;;;;;;0.3;0.3;;;;;;;;;;;;;
2020/10/16 10:43:13;;;;;;;0;0;;;;;;;;;;;;;
2020/10/16 10:45:38;;;;;;;0.4;0.2;;;;;;;;;;;;;
2020/10/16 10:48:45;;;;;;;0.1;0.1;;;;;;;;;;;;;
2020/10/16 10:50:29;;;;;;;0;0;;;;;;;;;;;;;
2020/10/16 10:52:57;;;;;;;0.1;0.1;;;;;;;;;;;;;
2020/10/16 10:55:25;;;;;;;0.1;0.1;;;;;;;;;;;;;
2020/10/16 10:57:51;;;;;;;0.1;0.1;;;;;;;;;;;;;
2020/10/16 11:00:18;;;;;;;0;0;;;;;;;;;;;;;
2020/10/16 11:02:44;;;;;;;0;0;;;;;;;;;;;;;
2020/10/16 11:05:22;;;;;;;0.1;0.1;;;;;;;;;;;;;
2020/10/16 11:07:34;;;;;;;0.1;0.1;;;;;;;;;;;;;
2020/10/16 11:09:59;;;;;;;0.2;0.2;;;;;;;;;;;;;
2020/10/16 11:12:24;;;;;;;0.5;0.4;;;;;;;;;;;;;
2020/10/16 11:14:50;;;;;;;0.2;0.1;;;;;;;;;;;;;
2020/10/16 11:17:17;;;;;;;0.2;0.2;;;;;;;;;;;;;
2020/10/16 11:19:42;;;;;;;0.7;0.4;;;;;;;;;;;;;
2020/10/16 11:22:07;;;;;;;0.4;0.4;;;;;;;;;;;;;
2020/10/16 11:24:32;;;;;;;0.7;0.6;;;;;;;;;;;;;
2020/10/16 11:26:58;;;;;;;0.9;0.7;;;;;;;;;;;;;
2020/10/16 11:29:23;;;;;;;1.6;0.9;;;;;;;;;;;;;
2020/10/16 11:31:50;;;;;;;1.1;0.6;;;;;;;;;;;;;
2020/10/16 11:34:15;;;;;;;0.9;0.8;;;;;;;;;;;;;
2020/10/16 11:36:40;;;;;;;1.5;0.8;;;;;;;;;;;;;
2020/10/16 11:39:21;;;;;;;0.6;0.5;;;;;;;;;;;;;
2020/10/16 11:41:30;;;;;;;1.2;0.8;;;;;;;;;;;;;
2020/10/16 11:43:56;;;;;;;1.3;0.8;;;;;;;;;;;;;
2020/10/16 11:46:21;;;;;;;0.8;0.4;;;;;;;;;;;;;
2020/10/16 11:48:47;;;;;;;1.1;0.9;;;;;;;;;;;;;
2020/10/16 11:51:11;;;;;;;0.5;0.5;;;;;;;;;;;;;
2020/10/16 11:53:38;;;;;;;0.8;0.6;;;;;;;;;;;;;
2020/10/16 11:56:03;;;;;;;1.1;0.7;;;;;;;;;;;;;
2020/10/16 11:58:28;;;;;;;1.3;0.9;;;;;;;;;;;;;
2020/10/16 12:00:53;;;;;;;0.4;0.4;;;;;;;;;;;;;
2020/10/16 12:03:20;;;;;;;0.4;0.4;;;;;;;;;;;;;
2020/10/16 12:05:45;;;;;;;0.6;0.4;;;;;;;;;;;;;
2020/10/16 12:08:11;;;;;;;0.9;0.7;;;;;;;;;;;;;
2020/10/16 12:10:35;;;;;;;1.1;0.6;;;;;;;;;;;;;
2020/10/16 12:13:00;;;;;;;0.9;0.7;;;;;;;;;;;;;
2020/10/16 12:15:29;;;;;;;1.9;0.5;;;;;;;;;;;;;
2020/10/16 12:17:53;;;;;;;0.7;0.6;;;;;;;;;;;;;
2020/10/16 12:20:19;;;;;;;0.8;0.4;;;;;;;;;;;;;
2020/10/16 12:22:44;;;;;;;0.7;0.5;;;;;;;;;;;;;
2020/10/16 12:25:09;;;;;;;0.5;0.4;;;;;;;;;;;;;
2020/10/16 12:27:35;;;;;;;2.1;0.5;;;;;;;;;;;;;
2020/10/16 12:29:59;;;;;;;0.6;0.3;;;;;;;;;;;;;
2020/10/16 12:32:24;;;;;;;0.3;0.3;;;;;;;;;;;;;
2020/10/16 12:34:49;;;;;;;0.3;0.3;;;;;;;;;;;;;
2020/10/16 12:37:14;;;;;;;0.5;0.4;;;;;;;;;;;;;
2020/10/16 12:39:40;;;;;;;0.3;0.3;;;;;;;;;;;;;
2020/10/16 12:42:05;;;;;;;0.8;0.5;;;;;;;;;;;;;
2020/10/16 12:44:30;;;;;;;0.5;0.4;;;;;;;;;;;;;
2020/10/16 12:46:57;;;;;;;0.3;0.2;;;;;;;;;;;;;
2020/10/16 12:49:22;;;;;;;0.3;0.3;;;;;;;;;;;;;
2020/10/16 12:51:49;;;;;;;0.6;0.4;;;;;;;;;;;;;
2020/10/16 12:54:12;;;;;;;0.6;0.2;;;;;;;;;;;;;
2020/10/16 12:56:38;;;;;;;0.2;0.1;;;;;;;;;;;;;
2020/10/16 12:59:03;;;;;;;0.2;0.2;;;;;;;;;;;;;
2020/10/16 13:01:30;;;;;;;0.3;0.3;;;;;;;;;;;;;
2020/10/16 13:03:55;;;;;;;0.3;0.3;;;;;;;;;;;;;
2020/10/16 13:06:21;;;;;;;0.9;0.4;;;;;;;;;;;;;
2020/10/16 13:08:46;;;;;;;0.9;0.4;;;;;;;;;;;;;
2020/10/16 13:11:12;;;;;;;0.4;0.3;;;;;;;;;;;;;
2020/10/16 13:13:37;;;;;;;0.9;0.3;;;;;;;;;;;;;
2020/10/16 13:16:04;;;;;;;1.4;0.8;;;;;;;;;;;;;
2020/10/16 13:18:29;;;;;;;0.4;0.4;;;;;;;;;;;;;
2020/10/16 13:21:03;;;;;;;0.4;0.2;;;;;;;;;;;;;
2020/10/16 13:23:21;;;;;;;0.7;0.4;;;;;;;;;;;;;
2020/10/16 13:25:47;;;;;;;0.8;0.4;;;;;;;;;;;;;
2020/10/16 13:28:12;;;;;;;0.6;0.3;;;;;;;;;;;;;
2020/10/16 13:30:42;;;;;;;0.6;0.4;;;;;;;;;;;;;
2020/10/16 13:33:03;;;;;;;0.2;0.2;;;;;;;;;;;;;
2020/10/16 13:35:27;;;;;;;1.1;0.5;;;;;;;;;;;;;
2020/10/16 13:37:52;;;;;;;0.4;0.3;;;;;;;;;;;;;
2020/10/16 13:40:18;;;;;;;0.5;0.4;;;;;;;;;;;;;
2020/10/16 13:42:44;;;;;;;0.1;0.1;;;;;;;;;;;;;
2020/10/16 13:45:09;;;;;;;0.2;0.2;;;;;;;;;;;;;
2020/10/16 13:47:34;;;;;;;0.4;0.4;;;;;;;;;;;;;
2020/10/16 13:50:00;;;;;;;0.3;0.3;;;;;;;;;;;;;
2020/10/16 13:52:25;;;;;;;0.7;0.5;;;;;;;;;;;;;
2020/10/16 13:54:50;;;;;;;0.4;0.4;;;;;;;;;;;;;
2020/10/16 13:57:17;;;;;;;0.6;0.4;;;;;;;;;;;;;
2020/10/16 13:59:40;;;;;;;0.6;0.3;;;;;;;;;;;;;
2020/10/16 14:02:06;;;;;;;0.2;0.2;;;;;;;;;;;;;
2020/10/16 14:04:31;;;;;;;0.5;0.4;;;;;;;;;;;;;
2020/10/16 14:06:56;;;;;;;1.6;0.5;;;;;;;;;;;;;
2020/10/16 14:09:21;;;;;;;0.6;0.4;;;;;;;;;;;;;
2020/10/16 14:11:47;;;;;;;0.6;0.5;;;;;;;;;;;;;
2020/10/16 14:14:13;;;;;;;0.6;0.6;;;;;;;;;;;;;
2020/10/16 14:16:37;;;;;;;1.1;0.5;;;;;;;;;;;;;
2020/10/16 14:19:02;;;;;;;0.4;0.4;;;;;;;;;;;;;
2020/10/16 14:21:27;;;;;;;0.2;0.2;;;;;;;;;;;;;
2020/10/16 14:23:54;;;;;;;0.5;0.5;;;;;;;;;;;;;
2020/10/16 14:26:19;;;;;;;1.2;0.5;;;;;;;;;;;;;
2020/10/16 14:28:44;;;;;;;0.6;0.4;;;;;;;;;;;;;
2020/10/16 14:31:09;;;;;;;1.2;0.6;;;;;;;;;;;;;
2020/10/16 14:33:35;;;;;;;2.7;0.7;;;;;;;;;;;;;
2020/10/16 14:36:00;;;;;;;1.1;0.5;;;;;;;;;;;;;
2020/10/16 14:38:26;;;;;;;0.5;0.3;;;;;;;;;;;;;
2020/10/16 14:40:52;;;;;;;0.3;0.3;;;;;;;;;;;;;
2020/10/16 14:43:17;;;;;;;0.9;0.4;;;;;;;;;;;;;
2020/10/16 14:45:42;;;;;;;0.8;0.6;;;;;;;;;;;;;
2020/10/16 14:48:07;;;;;;;0.4;0.4;;;;;;;;;;;;;
2020/10/16 14:50:33;;;;;;;0.6;0.4;;;;;;;;;;;;;
2020/10/16 14:52:58;;;;;;;1.1;0.8;;;;;;;;;;;;;
2020/10/16 14:55:23;;;;;;;1.5;0.7;;;;;;;;;;;;;
2020/10/16 14:57:48;;;;;;;1.3;0.9;;;;;;;;;;;;;
2020/10/16 15:00:18;;;;;;;1.1;0.7;;;;;;;;;;;;;
2020/10/16 15:02:44;;;;;;;2.6;1.1;;;;;;;;;;;;;
2020/10/16 15:05:09;;;;;;;1.1;0.8;;;;;;;;;;;;;
2020/10/16 15:07:36;;;;;;;1.6;1.1;;;;;;;;;;;;;
2020/10/16 15:10:01;;;;;;;1.1;0.7;;;;;;;;;;;;;
2020/10/16 15:12:27;;;;;;;2.2;0.8;;;;;;;;;;;;;
2020/10/16 15:14:52;;;;;;;1.6;1;;;;;;;;;;;;;
2020/10/16 15:17:18;;;;;;;1.3;0.7;;;;;;;;;;;;;
2020/10/16 15:19:44;;;;;;;0.7;0.5;;;;;;;;;;;;;
2020/10/16 15:22:09;;;;;;;1.2;0.9;;;;;;;;;;;;;
2020/10/16 15:24:34;;;;;;;1;0.7;;;;;;;;;;;;;
2020/10/16 15:27:00;;;;;;;2;1;;;;;;;;;;;;;
2020/10/16 15:29:28;;;;;;;2.2;1.4;;;;;;;;;;;;;
2020/10/16 15:31:54;;;;;;;2.3;1.5;;;;;;;;;;;;;
2020/10/16 15:34:16;;;;;;;1.9;1.4;;;;;;;;;;;;;
2020/10/16 15:36:41;;;;;;;1.1;0.9;;;;;;;;;;;;;
2020/10/16 15:39:06;;;;;;;1.2;0.9;;;;;;;;;;;;;
2020/10/16 15:41:32;;;;;;;1.3;0.8;;;;;;;;;;;;;
2020/10/16 15:43:56;;;;;;;5.9;2.6;;;;;;;;;;;;;
2020/10/16 15:46:21;;;;;;;4.2;1.9;;;;;;;;;;;;;
2020/10/16 15:48:47;;;;;;;4;1.6;;;;;;;;;;;;;
2020/10/16 15:51:12;;;;;;;2.4;1.7;;;;;;;;;;;;;
2020/10/16 15:53:37;;;;;;;7.1;4.4;;;;;;;;;;;;;
2020/10/16 15:56:03;;;;;;;11.6;6.5;;;;;;;;;;;;;
2020/10/16 15:58:29;;;;;;;11.8;6.2;;;;;;;;;;;;;
2020/10/16 16:00:56;;;;;;;17.6;8.4;;;;;;;;;;;;;
2020/10/16 16:03:21;;;;;;;7.9;3.6;;;;;;;;;;;;;
2020/10/16 16:05:47;;;;;;;4.5;2.8;;;;;;;;;;;;;
2020/10/16 16:08:12;;;;;;;1.5;1.2;;;;;;;;;;;;;
2020/10/16 16:10:38;;;;;;;1.3;1;;;;;;;;;;;;;
2020/10/16 16:13:10;;;;;;;0.9;0.6;;;;;;;;;;;;;
2020/10/16 16:15:28;;;;;;;2.7;1.9;;;;;;;;;;;;;
2020/10/16 16:17:55;;;;;;;16.5;8.4;;;;;;;;;;;;;
2020/10/16 16:20:20;;;;;;;47.5;19.1;;;;;;;;;;;;;
2020/10/16 16:22:46;;;;;;;81.3;34.3;;;;;;;;;;;;;
2020/10/16 16:25:11;;;;;;;56.6;25.7;;;;;;;;;;;;;
2020/10/16 16:27:39;;;;;;;57.5;23.6;;;;;;;;;;;;;
2020/10/16 16:30:03;;;;;;;49.7;19.9;;;;;;;;;;;;;
2020/10/16 16:32:27;;;;;;;18.5;9.5;;;;;;;;;;;;;
2020/10/16 16:34:52;;;;;;;8.4;3.9;;;;;;;;;;;;;
2020/10/16 16:37:18;;;;;;;3.1;1.6;;;;;;;;;;;;;
2020/10/16 16:39:46;;;;;;;7.7;4.6;;;;;;;;;;;;;
2020/10/16 16:42:08;;;;;;;4.5;3.2;;;;;;;;;;;;;
2020/10/16 16:44:33;;;;;;;1.9;1.2;;;;;;;;;;;;;
2020/10/16 16:46:58;;;;;;;0.9;0.8;;;;;;;;;;;;;
2020/10/16 16:49:23;;;;;;;1.4;0.9;;;;;;;;;;;;;
2020/10/16 16:51:49;;;;;;;0.8;0.8;;;;;;;;;;;;;
2020/10/16 16:54:15;;;;;;;1.2;1;;;;;;;;;;;;;
2020/10/16 16:56:40;;;;;;;1.4;1;;;;;;;;;;;;;
2020/10/16 16:59:07;;;;;;;3.4;1;;;;;;;;;;;;;
2020/10/16 17:01:32;;;;;;;1.6;1;;;;;;;;;;;;;
2020/10/16 17:03:58;;;;;;;1;0.9;;;;;;;;;;;;;
2020/10/16 17:06:23;;;;;;;5.8;2.9;;;;;;;;;;;;;
2020/10/16 17:11:14;;;;;;;7.8;3.6;;;;;;;;;;;;;
2020/10/16 17:13:39;;;;;;;3.2;1.8;;;;;;;;;;;;;
2020/10/16 17:16:04;;;;;;;3.1;2;;;;;;;;;;;;;
2020/10/16 17:18:29;;;;;;;2.9;1.8;;;;;;;;;;;;;
2020/10/16 17:20:55;;;;;;;3.8;2.2;;;;;;;;;;;;;
2020/10/16 17:23:20;;;;;;;9.7;5.2;;;;;;;;;;;;;
2020/10/16 17:25:46;;;;;;;8.3;4.9;;;;;;;;;;;;;
2020/10/16 17:28:11;;;;;;;4;2.4;;;;;;;;;;;;;
2020/10/16 17:30:39;;;;;;;11.4;5.3;;;;;;;;;;;;;
2020/10/16 17:33:04;;;;;;;10.1;4.1;;;;;;;;;;;;;
2020/10/16 17:35:31;;;;;;;27;8.9;;;;;;;;;;;;;
2020/10/16 17:37:54;;;;;;;7.3;3.7;;;;;;;;;;;;;
2020/10/16 17:40:22;;;;;;;5.5;3.2;;;;;;;;;;;;;
2020/10/16 17:42:48;;;;;;;10.6;4.7;;;;;;;;;;;;;
2020/10/16 17:45:13;;;;;;;6.7;3.6;;;;;;;;;;;;;
2020/10/16 17:47:39;;;;;;;2.2;1.4;;;;;;;;;;;;;
2020/10/16 17:50:04;;;;;;;0.5;0.5;;;;;;;;;;;;;
2020/10/16 17:52:29;;;;;;;0.5;0.5;;;;;;;;;;;;;
2020/10/16 17:54:54;;;;;;;5.3;1.9;;;;;;;;;;;;;
2020/10/16 17:57:20;;;;;;;0.5;0.5;;;;;;;;;;;;;
2020/10/16 17:59:48;;;;;;;0.7;0.5;;;;;;;;;;;;;
2020/10/16 18:02:11;;;;;;;0.4;0.4;;;;;;;;;;;;;
2020/10/16 18:04:37;;;;;;;2.3;0.6;;;;;;;;;;;;;
2020/10/16 18:07:07;;;;;;;1.4;0.9;;;;;;;;;;;;;
2020/10/16 18:09:27;;;;;;;2.3;0.9;;;;;;;;;;;;;
2020/10/16 18:11:52;;;;;;;1.3;0.7;;;;;;;;;;;;;
2020/10/16 18:14:17;;;;;;;1.6;1.1;;;;;;;;;;;;;
2020/10/16 18:16:42;;;;;;;3.1;1.3;;;;;;;;;;;;;
2020/10/16 18:19:08;;;;;;;7.3;1.9;;;;;;;;;;;;;
2020/10/16 18:21:34;;;;;;;1.1;0.7;;;;;;;;;;;;;
2020/10/16 18:23:59;;;;;;;0.7;0.5;;;;;;;;;;;;;
2020/10/16 18:26:25;;;;;;;1.1;0.6;;;;;;;;;;;;;
2020/10/16 18:28:50;;;;;;;1.8;1.1;;;;;;;;;;;;;
2020/10/16 18:31:19;;;;;;;0.6;0.5;;;;;;;;;;;;;
2020/10/16 18:33:43;;;;;;;2.5;1.1;;;;;;;;;;;;;
2020/10/16 18:36:08;;;;;;;3.4;2;;;;;;;;;;;;;
2020/10/16 18:38:34;;;;;;;4.1;2.4;;;;;;;;;;;;;
2020/10/16 18:40:59;;;;;;;8;4.4;;;;;;;;;;;;;
2020/10/16 18:43:25;;;;;;;7.8;3.6;;;;;;;;;;;;;
2020/10/16 18:45:51;;;;;;;8.3;4;;;;;;;;;;;;;
2020/10/16 18:48:16;;;;;;;10.4;3.5;;;;;;;;;;;;;
2020/10/16 18:50:44;;;;;;;4.3;1.4;;;;;;;;;;;;;
2020/10/16 18:53:08;;;;;;;6.3;3;;;;;;;;;;;;;
2020/10/16 18:55:37;;;;;;;4.4;2.7;;;;;;;;;;;;;
2020/10/16 18:58:03;;;;;;;1.9;1.4;;;;;;;;;;;;;
2020/10/16 19:00:29;;;;;;;0.9;0.8;;;;;;;;;;;;;
2020/10/16 19:02:55;;;;;;;0.6;0.2;;;;;;;;;;;;;
2020/10/16 19:05:20;;;;;;;0.2;0.2;;;;;;;;;;;;;
2020/10/16 19:07:45;;;;;;;0.1;0.1;;;;;;;;;;;;;
2020/10/16 19:10:10;;;;;;;0.2;0.2;;;;;;;;;;;;;
2020/10/16 19:12:35;;;;;;;0.9;0.4;;;;;;;;;;;;;
2020/10/16 19:15:01;;;;;;;1.8;0.3;;;;;;;;;;;;;
2020/10/16 19:17:26;;;;;;;1.1;0.5;;;;;;;;;;;;;
2020/10/16 19:19:51;;;;;;;1.9;1;;;;;;;;;;;;;
2020/10/16 19:22:16;;;;;;;1.1;0.4;;;;;;;;;;;;;
2020/10/16 19:24:41;;;;;;;0.4;0.4;;;;;;;;;;;;;
2020/10/16 19:27:07;;;;;;;0.1;0.1;;;;;;;;;;;;;
2020/10/16 19:29:32;;;;;;;0.2;0.1;;;;;;;;;;;;;
2020/10/16 19:31:57;;;;;;;0.1;0.1;;;;;;;;;;;;;
2020/10/16 19:34:22;;;;;;;0.7;0.3;;;;;;;;;;;;;
2020/10/16 19:36:47;;;;;;;0.1;0.1;;;;;;;;;;;;;
2020/10/16 19:39:13;;;;;;;0.1;0.1;;;;;;;;;;;;;
2020/10/16 19:41:38;;;;;;;1;0.2;;;;;;;;;;;;;